createdAt,value
2018-07-06T00:00:54.075Z,18.60
2018-07-06T00:03:34.348Z,18.60
2018-07-06T00:06:14.632Z,18.60
2018-07-06T00:08:54.797Z,18.60
2018-07-06T00:11:35.110Z,18.70
2018-07-06T00:14:15.322Z,18.70
2018-07-06T00:16:55.734Z,18.60
2018-07-06T00:19:35.902Z,18.70
2018-07-06T00:22:16.290Z,18.70
2018-07-06T00:24:56.494Z,18.70
2018-07-06T00:27:36.767Z,18.80
2018-07-06T00:30:17.097Z,18.70
2018-07-06T00:32:57.322Z,18.70
2018-07-06T00:35:37.710Z,18.70
2018-07-06T00:38:18.126Z,18.70
2018-07-06T00:40:58.423Z,18.50
2018-07-06T00:43:38.650Z,18.50
2018-07-06T00:46:18.998Z,18.60
2018-07-06T00:48:59.190Z,18.60
2018-07-06T00:51:39.493Z,18.60
2018-07-06T00:54:19.937Z,18.70
2018-07-06T00:57:00.219Z,18.80
2018-07-06T00:59:40.599Z,18.80
2018-07-06T01:02:20.885Z,18.70
2018-07-06T01:05:01.106Z,18.70
2018-07-06T01:07:41.383Z,18.80
2018-07-06T01:10:21.753Z,18.80
2018-07-06T01:13:02.911Z,18.80
2018-07-06T01:15:43.167Z,18.80
2018-07-06T01:18:23.433Z,18.80
2018-07-06T01:21:03.631Z,18.90
2018-07-06T01:23:43.914Z,18.80
2018-07-06T01:26:24.328Z,18.70
2018-07-06T01:29:04.452Z,18.70
2018-07-06T01:31:44.798Z,18.80
2018-07-06T01:34:25.167Z,18.80
2018-07-06T01:37:05.487Z,18.70
2018-07-06T01:39:45.693Z,18.80
2018-07-06T01:42:26.191Z,18.80
2018-07-06T01:45:06.347Z,18.70
2018-07-06T01:47:46.831Z,18.70
2018-07-06T01:50:27.224Z,18.70
2018-07-06T01:53:07.437Z,18.80
2018-07-06T01:55:47.737Z,18.80
2018-07-06T01:58:27.858Z,18.80
2018-07-06T02:01:08.126Z,18.70
2018-07-06T02:03:48.454Z,18.60
2018-07-06T02:06:28.610Z,18.70
2018-07-06T02:09:08.979Z,18.70
2018-07-06T02:11:49.091Z,18.70
2018-07-06T02:14:29.482Z,18.70
2018-07-06T02:17:09.722Z,18.70
2018-07-06T02:19:50.027Z,18.70
2018-07-06T02:22:30.238Z,18.70
2018-07-06T02:25:10.493Z,18.70
2018-07-06T02:27:50.759Z,18.70
2018-07-06T02:30:31.049Z,18.70
2018-07-06T02:33:11.215Z,18.80
2018-07-06T02:35:51.568Z,18.80
2018-07-06T02:38:31.894Z,18.80
2018-07-06T02:41:12.266Z,18.70
2018-07-06T02:43:52.518Z,18.80
2018-07-06T02:46:33.143Z,18.90
2018-07-06T02:49:13.439Z,18.90
2018-07-06T02:51:53.811Z,18.90
2018-07-06T02:54:34.805Z,18.90
2018-07-06T02:57:14.987Z,18.80
2018-07-06T02:59:55.292Z,18.80
2018-07-06T03:02:35.524Z,18.80
2018-07-06T03:05:15.829Z,18.90
2018-07-06T03:07:56.090Z,18.90
2018-07-06T03:10:36.430Z,18.90
2018-07-06T03:13:16.834Z,18.80
2018-07-06T03:15:57.144Z,18.80
2018-07-06T03:18:37.454Z,18.90
2018-07-06T03:21:17.727Z,18.80
2018-07-06T03:23:57.883Z,18.90
2018-07-06T03:26:38.195Z,18.90
2018-07-06T03:29:18.648Z,18.80
2018-07-06T03:31:58.923Z,18.80
2018-07-06T03:34:39.219Z,18.80
2018-07-06T03:37:19.526Z,18.90
2018-07-06T03:39:59.762Z,18.90
2018-07-06T03:42:40.075Z,18.80
2018-07-06T03:45:20.406Z,18.80
2018-07-06T03:48:00.769Z,18.70
2018-07-06T03:50:41.099Z,18.90
2018-07-06T03:53:21.317Z,18.90
2018-07-06T03:56:01.686Z,18.90
2018-07-06T03:58:42.020Z,18.80
2018-07-06T04:01:22.349Z,18.80
2018-07-06T04:04:02.619Z,18.80
2018-07-06T04:06:42.967Z,18.80
2018-07-06T04:09:23.228Z,18.90
2018-07-06T04:12:03.531Z,19.00
2018-07-06T04:14:43.866Z,19.00
2018-07-06T04:17:24.275Z,18.90
2018-07-06T04:20:04.599Z,18.90
2018-07-06T04:22:44.734Z,18.90
2018-07-06T04:25:25.075Z,19.00
2018-07-06T04:28:05.296Z,18.90
2018-07-06T04:30:45.545Z,19.00
2018-07-06T04:33:25.889Z,19.00
2018-07-06T04:36:06.042Z,18.90
2018-07-06T04:38:46.250Z,18.90
2018-07-06T04:41:26.537Z,19.00
2018-07-06T04:44:06.845Z,19.00
2018-07-06T04:46:47.078Z,19.00
2018-07-06T04:49:27.461Z,19.10
2018-07-06T04:52:07.700Z,19.00
2018-07-06T04:54:48.026Z,19.00
2018-07-06T04:57:28.386Z,19.10
2018-07-06T05:00:08.712Z,19.10
2018-07-06T05:02:48.902Z,19.10
2018-07-06T05:05:29.329Z,19.10
2018-07-06T05:08:09.539Z,19.10
2018-07-06T05:10:49.874Z,19.00
2018-07-06T05:13:30.051Z,19.10
2018-07-06T05:16:10.408Z,19.00
2018-07-06T05:18:50.719Z,19.00
2018-07-06T05:21:31.098Z,18.90
2018-07-06T05:24:11.457Z,18.90
2018-07-06T05:26:51.946Z,18.80
2018-07-06T05:29:32.232Z,18.80
2018-07-06T05:32:12.616Z,18.90
2018-07-06T05:34:52.947Z,18.90
2018-07-06T05:37:33.110Z,18.90
2018-07-06T05:40:13.295Z,18.90
2018-07-06T05:42:53.648Z,18.90
2018-07-06T05:45:33.978Z,18.80
2018-07-06T05:48:14.218Z,18.80
2018-07-06T05:50:54.668Z,18.80
2018-07-06T05:53:35.048Z,18.80
2018-07-06T05:56:15.411Z,18.80
2018-07-06T05:58:55.749Z,18.80
2018-07-06T06:01:36.035Z,18.80
2018-07-06T06:04:16.292Z,18.80
2018-07-06T06:06:56.598Z,19.00
2018-07-06T06:09:25.603Z,19.00
2018-07-06T06:11:54.629Z,19.10
2018-07-06T06:14:23.824Z,19.10
2018-07-06T06:16:52.878Z,19.20
2018-07-06T06:19:21.888Z,19.30
2018-07-06T06:21:51.342Z,19.40
2018-07-06T06:24:20.443Z,19.40
2018-07-06T06:26:49.429Z,19.40
2018-07-06T06:29:18.768Z,19.30
2018-07-06T06:31:47.846Z,19.40
2018-07-06T06:34:16.910Z,19.50
2018-07-06T06:36:45.989Z,19.60
2018-07-06T06:39:15.083Z,19.60
2018-07-06T06:41:44.200Z,19.80
2018-07-06T06:44:13.396Z,19.80
2018-07-06T06:46:42.627Z,19.90
2018-07-06T06:49:11.999Z,19.90
2018-07-06T06:51:42.238Z,19.80
2018-07-06T06:54:11.411Z,19.80
2018-07-06T06:56:40.468Z,19.80
2018-07-06T06:59:09.531Z,19.80
2018-07-06T07:01:38.562Z,19.80
2018-07-06T07:04:07.659Z,19.70
2018-07-06T07:06:36.897Z,19.70
2018-07-06T07:09:06.322Z,19.80
2018-07-06T07:11:35.811Z,19.90
2018-07-06T07:14:05.100Z,19.80
2018-07-06T07:16:34.470Z,19.90
2018-07-06T07:19:03.564Z,19.90
2018-07-06T07:21:32.819Z,19.90
2018-07-06T07:24:01.878Z,20.00
2018-07-06T07:26:31.119Z,20.00
2018-07-06T07:29:00.111Z,20.00
2018-07-06T07:31:29.197Z,20.00
2018-07-06T07:33:58.282Z,20.00
2018-07-06T07:36:27.360Z,20.00
2018-07-06T07:38:56.431Z,20.00
2018-07-06T07:41:25.513Z,20.00
2018-07-06T07:43:54.494Z,20.00
2018-07-06T07:46:23.652Z,19.80
2018-07-06T07:48:52.626Z,19.90
2018-07-06T07:51:59.100Z,19.80
2018-07-06T07:54:32.192Z,19.90
2018-07-06T07:57:02.158Z,19.90
2018-07-06T07:59:32.676Z,20.00
2018-07-06T08:02:02.393Z,20.00
2018-07-06T08:04:31.778Z,20.00
2018-07-06T08:07:00.838Z,20.10
2018-07-06T08:09:29.973Z,20.10
2018-07-06T08:12:00.216Z,20.10
2018-07-06T08:14:29.351Z,20.10
2018-07-06T08:16:58.297Z,20.20
2018-07-06T08:19:27.340Z,20.10
2018-07-06T08:21:56.350Z,20.00
2018-07-06T08:24:25.418Z,19.90
2018-07-06T08:26:54.414Z,20.00
2018-07-06T08:29:23.446Z,20.00
2018-07-06T08:31:52.424Z,19.90
2018-07-06T08:34:32.762Z,19.80
2018-07-06T08:37:25.313Z,19.70
2018-07-06T08:39:55.073Z,19.60
2018-07-06T08:42:25.189Z,19.50
2018-07-06T08:44:54.633Z,19.50
2018-07-06T08:47:23.622Z,19.60
2018-07-06T08:49:53.100Z,19.70
2018-07-06T08:52:22.141Z,19.70
2018-07-06T08:54:51.804Z,19.80
2018-07-06T08:57:21.654Z,19.90
2018-07-06T08:59:51.299Z,20.00
2018-07-06T09:02:20.550Z,20.00
2018-07-06T09:04:50.242Z,20.20
2018-07-06T09:07:19.244Z,20.10
2018-07-06T09:09:48.370Z,20.10
2018-07-06T09:12:17.379Z,20.10
2018-07-06T09:14:46.411Z,20.30
2018-07-06T09:17:16.406Z,20.40
2018-07-06T09:19:46.182Z,20.40
2018-07-06T09:22:15.448Z,20.40
2018-07-06T09:24:45.242Z,20.50
2018-07-06T09:27:14.362Z,20.40
2018-07-06T09:29:43.483Z,20.40
2018-07-06T09:32:12.381Z,20.40
2018-07-06T09:34:41.794Z,20.50
2018-07-06T09:37:10.787Z,20.60
2018-07-06T09:39:40.723Z,20.60
2018-07-06T09:42:09.682Z,20.80
2018-07-06T09:44:38.803Z,20.90
2018-07-06T09:47:07.866Z,20.90
2018-07-06T09:49:36.879Z,21.00
2018-07-06T09:52:05.887Z,20.90
2018-07-06T09:54:34.998Z,20.90
2018-07-06T09:57:03.990Z,21.00
2018-07-06T09:59:33.043Z,21.10
2018-07-06T10:02:02.083Z,21.20
2018-07-06T10:04:31.195Z,21.20
2018-07-06T10:07:00.218Z,21.20
2018-07-06T10:09:29.232Z,21.20
2018-07-06T10:11:58.239Z,21.20
2018-07-06T10:14:27.390Z,21.30
2018-07-06T10:16:56.380Z,21.40
2018-07-06T10:19:25.455Z,21.60
2018-07-06T10:21:54.441Z,21.80
2018-07-06T10:24:23.534Z,21.80
2018-07-06T10:26:52.556Z,21.80
2018-07-06T10:29:37.166Z,22.00
2018-07-06T10:32:17.280Z,22.00
2018-07-06T10:34:46.450Z,22.10
2018-07-06T10:37:16.106Z,22.00
2018-07-06T10:39:45.540Z,22.20
2018-07-06T10:42:14.470Z,22.30
2018-07-06T10:44:43.534Z,22.50
2018-07-06T10:47:12.609Z,22.50
2018-07-06T10:49:41.677Z,22.40
2018-07-06T10:52:11.480Z,22.30
2018-07-06T10:54:41.808Z,22.40
2018-07-06T10:57:10.825Z,22.40
2018-07-06T10:59:39.810Z,22.60
2018-07-06T11:02:08.886Z,22.50
2018-07-06T11:04:44.146Z,22.30
2018-07-06T11:07:13.174Z,22.40
2018-07-06T11:09:42.159Z,22.70
2018-07-06T11:12:11.154Z,22.90
2018-07-06T11:14:40.381Z,23.00
2018-07-06T11:17:09.357Z,23.20
2018-07-06T11:19:38.354Z,23.20
2018-07-06T11:22:07.839Z,23.10
2018-07-06T11:24:36.911Z,23.30
2018-07-06T11:27:05.892Z,23.50
2018-07-06T11:29:34.851Z,23.70
2018-07-06T11:32:03.891Z,23.80
2018-07-06T11:34:32.838Z,23.70
2018-07-06T11:37:02.184Z,23.70
2018-07-06T11:39:31.228Z,23.80
2018-07-06T11:42:00.290Z,24.00
2018-07-06T11:44:29.291Z,24.00
2018-07-06T11:46:58.291Z,24.00
2018-07-06T11:49:27.391Z,24.40
2018-07-06T11:51:56.363Z,24.30
2018-07-06T11:54:25.431Z,24.40
2018-07-06T11:56:54.431Z,24.40
2018-07-06T11:59:23.419Z,24.60
2018-07-06T12:01:52.501Z,24.60
2018-07-06T12:04:21.611Z,24.80
2018-07-06T12:06:50.456Z,25.00
2018-07-06T12:09:19.457Z,25.20
2018-07-06T12:11:48.486Z,25.50
2018-07-06T12:14:17.460Z,25.40
2018-07-06T12:16:46.439Z,25.60
2018-07-06T12:19:15.443Z,25.90
2018-07-06T12:21:44.401Z,26.10
2018-07-06T12:24:13.461Z,26.30
2018-07-06T12:26:42.423Z,26.50
2018-07-06T12:29:11.443Z,26.20
2018-07-06T12:31:40.502Z,26.00
2018-07-06T12:34:09.467Z,25.60
2018-07-06T12:36:38.537Z,25.40
2018-07-06T12:39:07.592Z,25.40
2018-07-06T12:41:36.623Z,25.30
2018-07-06T12:44:05.574Z,25.30
2018-07-06T12:46:34.862Z,25.10
2018-07-06T12:49:03.837Z,25.00
2018-07-06T12:51:32.915Z,24.90
2018-07-06T12:54:02.007Z,25.10
2018-07-06T12:56:31.043Z,25.20
2018-07-06T12:59:00.094Z,25.60
2018-07-06T13:01:29.106Z,25.80
2018-07-06T13:03:58.062Z,25.90
2018-07-06T13:06:27.018Z,26.40
2018-07-06T13:08:56.075Z,26.50
2018-07-06T13:11:25.024Z,26.60
2018-07-06T13:13:54.943Z,26.50
2018-07-06T13:16:23.933Z,26.60
2018-07-06T13:18:52.910Z,26.80
2018-07-06T13:21:28.274Z,26.80
2018-07-06T13:23:57.320Z,26.40
2018-07-06T13:26:26.378Z,26.30
2018-07-06T13:28:55.369Z,26.40
2018-07-06T13:31:24.331Z,27.00
2018-07-06T13:33:53.454Z,28.10
2018-07-06T13:36:22.348Z,29.60
2018-07-06T13:38:51.308Z,30.80
2018-07-06T13:41:20.288Z,31.20
2018-07-06T13:43:49.243Z,31.70
2018-07-06T13:46:18.248Z,31.20
2018-07-06T13:48:47.306Z,30.10
2018-07-06T13:51:16.328Z,30.10
2018-07-06T13:53:45.338Z,30.00
2018-07-06T13:56:14.350Z,30.60
2018-07-06T13:58:43.330Z,30.70
2018-07-06T14:01:12.469Z,30.80
2018-07-06T14:03:41.461Z,31.80
2018-07-06T14:06:10.474Z,32.80
2018-07-06T14:08:39.518Z,34.00
2018-07-06T14:11:08.553Z,34.80
2018-07-06T14:13:37.569Z,33.80
2018-07-06T14:16:06.534Z,33.10
2018-07-06T14:18:35.614Z,31.40
2018-07-06T14:21:07.015Z,31.00
2018-07-06T14:23:36.437Z,30.40
2018-07-06T14:26:05.410Z,29.40
2018-07-06T14:28:34.370Z,28.90
2018-07-06T14:31:03.408Z,28.70
2018-07-06T14:33:32.394Z,29.50
2018-07-06T14:36:01.356Z,30.70
2018-07-06T14:38:30.346Z,31.60
2018-07-06T14:40:59.326Z,32.20
2018-07-06T14:43:28.522Z,33.40
2018-07-06T14:45:57.517Z,33.30
2018-07-06T14:48:26.458Z,32.70
2018-07-06T14:50:55.423Z,31.80
2018-07-06T14:53:24.391Z,30.60
2018-07-06T14:55:53.433Z,29.50
2018-07-06T14:58:22.390Z,28.60
2018-07-06T15:00:51.391Z,28.60
2018-07-06T15:03:20.362Z,29.10
2018-07-06T15:05:49.341Z,29.20
2018-07-06T15:08:18.354Z,28.80
2018-07-06T15:10:47.508Z,28.60
2018-07-06T15:13:16.448Z,28.30
2018-07-06T15:15:45.359Z,27.50
2018-07-06T15:18:14.355Z,26.90
2018-07-06T15:20:43.356Z,27.50
2018-07-06T15:23:12.310Z,28.50
2018-07-06T15:25:41.309Z,28.30
2018-07-06T15:28:10.249Z,27.80
2018-07-06T15:30:39.503Z,27.40
2018-07-06T15:33:08.458Z,27.10
2018-07-06T15:35:37.421Z,27.50
2018-07-06T15:38:06.421Z,27.90
2018-07-06T15:40:35.478Z,27.60
2018-07-06T15:43:04.502Z,28.40
2018-07-06T15:45:33.498Z,30.20
2018-07-06T15:48:02.498Z,31.80
2018-07-06T15:50:31.468Z,32.70
2018-07-06T15:53:00.430Z,31.20
2018-07-06T15:55:29.398Z,30.50
2018-07-06T15:57:58.531Z,29.30
2018-07-06T16:00:27.812Z,28.70
2018-07-06T16:02:56.800Z,28.20
2018-07-06T16:05:25.895Z,27.70
2018-07-06T16:07:54.883Z,27.40
2018-07-06T16:10:23.995Z,27.20
2018-07-06T16:12:52.979Z,27.00
2018-07-06T16:15:21.957Z,26.90
2018-07-06T16:17:50.990Z,26.90
2018-07-06T16:20:20.050Z,27.00
2018-07-06T16:22:49.159Z,27.40
2018-07-06T16:25:18.263Z,28.10
2018-07-06T16:27:47.257Z,28.60
2018-07-06T16:30:16.322Z,28.30
2018-07-06T16:32:45.434Z,28.00
2018-07-06T16:35:14.416Z,27.60
2018-07-06T16:37:43.382Z,27.30
2018-07-06T16:40:12.427Z,27.00
2018-07-06T16:42:41.406Z,26.70
2018-07-06T16:45:10.462Z,26.40
2018-07-06T16:47:39.446Z,26.60
2018-07-06T16:50:08.418Z,27.00
2018-07-06T16:52:37.455Z,27.00
2018-07-06T16:55:06.410Z,27.00
2018-07-06T16:57:35.577Z,26.80
2018-07-06T17:00:04.547Z,26.70
2018-07-06T17:02:33.507Z,26.80
2018-07-06T17:05:02.527Z,27.00
2018-07-06T17:07:31.624Z,27.00
2018-07-06T17:12:24.902Z,27.10
2018-07-06T17:14:54.736Z,26.80
2018-07-06T17:17:23.722Z,26.70
2018-07-06T17:19:52.714Z,26.60
2018-07-06T17:22:21.708Z,26.50
2018-07-06T17:24:50.742Z,26.70
2018-07-06T17:27:19.786Z,26.60
2018-07-06T17:29:48.758Z,26.40
2018-07-06T17:32:17.780Z,26.30
2018-07-06T17:34:47.313Z,26.20
2018-07-06T17:37:16.375Z,26.00
2018-07-06T17:39:45.371Z,26.00
2018-07-06T17:42:14.503Z,26.00
2018-07-06T17:44:43.664Z,26.00
2018-07-06T17:47:12.651Z,26.00
2018-07-06T17:49:48.073Z,25.90
2018-07-06T17:52:17.036Z,25.80
2018-07-06T17:54:46.420Z,25.70
2018-07-06T17:57:15.454Z,25.60
2018-07-06T17:59:44.511Z,25.60
2018-07-06T18:02:14.346Z,25.50
2018-07-06T18:04:43.338Z,25.50
2018-07-06T18:07:12.336Z,25.50
2018-07-06T18:09:41.356Z,25.40
2018-07-06T18:12:10.362Z,25.30
2018-07-06T18:14:39.567Z,25.30
2018-07-06T18:17:08.559Z,25.40
2018-07-06T18:19:37.557Z,25.20
2018-07-06T18:22:06.609Z,25.20
2018-07-06T18:24:35.846Z,25.10
2018-07-06T18:27:04.878Z,25.10
2018-07-06T18:29:34.013Z,25.00
2018-07-06T18:32:02.941Z,25.00
2018-07-06T18:34:32.090Z,24.90
2018-07-06T18:37:01.099Z,24.80
2018-07-06T18:39:30.122Z,24.60
2018-07-06T18:41:59.134Z,24.50
2018-07-06T18:44:28.517Z,24.40
2018-07-06T18:46:57.700Z,24.40
2018-07-06T18:49:26.738Z,24.20
2018-07-06T18:51:55.727Z,24.10
2018-07-06T18:54:24.733Z,24.10
2018-07-06T18:56:54.070Z,24.00
2018-07-06T18:59:23.142Z,24.00
2018-07-06T19:01:52.180Z,23.90
2018-07-06T19:04:21.236Z,23.80
2018-07-06T19:06:50.213Z,23.70
2018-07-06T19:09:19.239Z,23.60
2018-07-06T19:11:48.282Z,23.50
2018-07-06T19:14:17.249Z,23.40
2018-07-06T19:16:46.287Z,23.30
2018-07-06T19:19:15.255Z,23.20
2018-07-06T19:21:44.242Z,23.10
2018-07-06T19:24:13.303Z,23.10
2018-07-06T19:26:42.322Z,23.10
2018-07-06T19:29:11.316Z,23.00
2018-07-06T19:31:41.215Z,22.80
2018-07-06T19:34:10.236Z,22.80
2018-07-06T19:36:39.274Z,22.80
2018-07-06T19:39:08.231Z,22.70
2018-07-06T19:41:37.248Z,22.70
2018-07-06T19:44:06.266Z,22.60
2018-07-06T19:46:35.246Z,22.60
2018-07-06T19:49:04.254Z,22.60
2018-07-06T19:51:33.266Z,22.50
2018-07-06T19:54:02.222Z,22.40
2018-07-06T19:56:31.206Z,22.40
2018-07-06T19:59:00.292Z,22.30
2018-07-06T20:01:29.350Z,22.30
2018-07-06T20:03:58.428Z,22.30
2018-07-06T20:06:27.412Z,22.20
2018-07-06T20:08:56.474Z,22.10
2018-07-06T20:11:25.395Z,22.10
2018-07-06T20:13:54.435Z,22.00
2018-07-06T20:16:23.507Z,22.00
2018-07-06T20:18:52.492Z,21.90
2018-07-06T20:21:21.450Z,21.90
2018-07-06T20:23:50.422Z,21.90
2018-07-06T20:26:19.408Z,21.80
2018-07-06T20:28:48.466Z,21.70
2018-07-06T20:31:17.441Z,21.60
2018-07-06T20:33:46.394Z,21.50
2018-07-06T20:36:15.423Z,21.40
2018-07-06T20:38:44.406Z,21.40
2018-07-06T20:41:13.458Z,21.30
2018-07-06T20:43:42.415Z,21.20
2018-07-06T20:46:11.437Z,21.20
2018-07-06T20:48:40.426Z,21.10
2018-07-06T20:51:09.399Z,21.00
2018-07-06T20:53:38.450Z,21.00
2018-07-06T20:56:07.455Z,20.90
2018-07-06T20:58:36.802Z,20.90
2018-07-06T21:01:05.985Z,20.90
2018-07-06T21:03:34.951Z,20.80
2018-07-06T21:06:04.007Z,20.70
2018-07-06T21:08:33.083Z,20.60
2018-07-06T21:11:02.043Z,20.50
2018-07-06T21:13:31.044Z,20.50
2018-07-06T21:16:00.342Z,20.40
2018-07-06T21:18:29.327Z,20.50
2018-07-06T21:20:58.351Z,20.40
2018-07-06T21:23:27.577Z,20.40
2018-07-06T21:25:56.554Z,20.40
2018-07-06T21:28:25.530Z,20.40
2018-07-06T21:30:54.533Z,20.40
2018-07-06T21:33:23.497Z,20.30
2018-07-06T21:35:52.501Z,20.30
2018-07-06T21:38:21.455Z,20.10
2018-07-06T21:40:50.447Z,20.00
2018-07-06T21:43:19.505Z,19.90
2018-07-06T21:45:48.536Z,20.00
2018-07-06T21:48:17.538Z,19.90
2018-07-06T21:50:46.502Z,19.80
2018-07-06T21:53:15.556Z,19.70
2018-07-06T21:55:44.578Z,19.60
2018-07-06T21:58:13.566Z,19.60
2018-07-06T22:00:42.784Z,19.50
2018-07-06T22:03:12.477Z,19.50
2018-07-06T22:05:42.179Z,19.40
2018-07-06T22:08:11.158Z,19.30
2018-07-06T22:10:40.226Z,19.20
2018-07-06T22:13:09.234Z,19.10
2018-07-06T22:15:41.646Z,18.90
2018-07-06T22:18:11.015Z,19.00
2018-07-06T22:20:40.099Z,19.00
2018-07-06T22:23:09.091Z,18.90
2018-07-06T22:25:38.116Z,18.90
2018-07-06T22:28:07.394Z,18.90
2018-07-06T22:30:36.407Z,18.80
2018-07-06T22:33:05.566Z,18.70
2018-07-06T22:35:34.683Z,18.60
2018-07-06T22:38:03.694Z,18.50
2018-07-06T22:40:32.755Z,18.50
2018-07-06T22:43:01.805Z,18.50
2018-07-06T22:45:30.839Z,18.50
2018-07-06T22:47:59.823Z,18.40
2018-07-06T22:50:28.818Z,18.40
2018-07-06T22:52:57.816Z,18.40
2018-07-06T22:55:26.822Z,18.40
2018-07-06T22:57:55.791Z,18.40
2018-07-06T23:00:24.788Z,18.20
2018-07-06T23:02:59.084Z,18.10
2018-07-06T23:05:28.156Z,18.00
2018-07-06T23:07:57.088Z,18.00
2018-07-06T23:10:26.047Z,18.00
2018-07-06T23:12:55.046Z,18.10
2018-07-06T23:17:44.146Z,18.00
2018-07-06T23:20:13.350Z,17.90
2018-07-06T23:23:13.559Z,17.80
2018-07-06T23:25:47.582Z,17.80
2018-07-06T23:28:16.766Z,17.70
2018-07-06T23:30:45.771Z,17.60
2018-07-06T23:33:14.868Z,17.50
2018-07-06T23:35:43.948Z,17.50
2018-07-06T23:38:13.039Z,17.50
2018-07-06T23:40:41.941Z,17.40
2018-07-06T23:43:10.912Z,17.20
2018-07-06T23:45:39.913Z,17.20
2018-07-06T23:48:08.919Z,17.20
2018-07-06T23:50:37.885Z,17.30
2018-07-06T23:53:06.888Z,17.20
2018-07-06T23:55:35.979Z,17.20
2018-07-06T23:58:05.182Z,17.20
